Time;durP1;ratioP1;P1;durP2;ratioP2;P2;SDS_P1;SDS_P2;PMS_P1;PMS_P2;Temp;Humidity;BMP_temperature;BMP_pressure;BME280_temperature;BME280_humidity;BME280_pressure;Samples;Min_cycle;Max_cycle;Signal;HPM_P1;HPM_P2
2024/03/19 00:00:16;;;;;;;3.92;2.30;;;;;;;10.14;75.86;99740.53;5033638;28;20060;-42
2024/03/19 00:02:42;;;;;;;3.00;2.03;;;;;;;10.06;76.19;99726.78;5019288;28;20045;-43
2024/03/19 00:05:08;;;;;;;2.05;1.77;;;;;;;10.12;76.63;99731.88;5015924;28;20053;-41
2024/03/19 00:07:34;;;;;;;3.80;1.75;;;;;;;10.07;76.14;99728.47;5038546;28;20052;-43
2024/03/19 00:10:01;;;;;;;2.22;0.93;;;;;;;10.12;76.65;99737.94;5019391;28;21138;-41
2024/03/19 00:12:27;;;;;;;3.60;1.98;;;;;;;10.17;76.26;99724.97;5027074;28;20107;-42
2024/03/19 00:14:53;;;;;;;1.92;1.48;;;;;;;10.18;76.14;99731.88;5022698;28;20696;-40
2024/03/19 00:17:18;;;;;;;2.58;2.40;;;;;;;10.09;76.76;99731.91;5020570;28;20053;-41
2024/03/19 00:19:44;;;;;;;3.67;1.83;;;;;;;10.21;75.75;99729.25;5017442;28;20132;-46
2024/03/19 00:22:15;;;;;;;0.45;0.20;;;;;;;10.22;75.79;99725.78;5021684;28;20614;-44
2024/03/19 00:24:43;;;;;;;2.75;1.70;;;;;;;10.21;75.82;99731.84;5022792;28;20053;-44
2024/03/19 00:27:14;;;;;;;2.40;1.10;;;;;;;10.28;75.97;99727.50;5034689;28;20417;-44
2024/03/19 00:29:40;;;;;;;3.08;1.33;;;;;;;10.26;75.54;99735.25;5023696;28;20053;-43
2024/03/19 00:32:06;;;;;;;1.85;1.75;;;;;;;10.29;75.85;99724.88;5019627;28;20046;-43
2024/03/19 00:34:31;;;;;;;2.15;0.88;;;;;;;10.29;75.96;99714.53;5024825;28;20608;-42
2024/03/19 00:36:59;;;;;;;2.50;2.30;;;;;;;10.24;76.74;99713.69;5025643;28;20049;-41
2024/03/19 00:39:25;;;;;;;1.30;1.23;;;;;;;10.30;75.55;99720.56;5022001;28;20049;-43
2024/03/19 00:41:51;;;;;;;2.30;1.42;;;;;;;10.29;76.58;99726.59;5028196;28;20037;-42
2024/03/19 00:44:17;;;;;;;2.65;1.42;;;;;;;10.26;76.81;99722.31;5025609;28;20128;-41
2024/03/19 00:46:43;;;;;;;4.22;1.83;;;;;;;10.29;75.85;99735.25;5029186;28;20074;-41
2024/03/19 00:49:09;;;;;;;4.25;1.55;;;;;;;10.31;76.51;99736.97;5019867;28;20131;-43
2024/03/19 00:51:35;;;;;;;3.72;1.70;;;;;;;10.34;76.31;99731.75;5018733;28;20087;-42
2024/03/19 00:54:00;;;;;;;3.60;1.58;;;;;;;10.34;76.30;99739.53;5009372;28;20508;-43
2024/03/19 00:56:26;;;;;;;2.58;2.38;;;;;;;10.29;76.34;99743.00;5024727;28;20041;-42
2024/03/19 00:58:52;;;;;;;4.07;2.50;;;;;;;10.42;75.46;99735.16;5027601;28;20060;-43
2024/03/19 01:01:17;;;;;;;1.95;1.65;;;;;;;10.44;76.17;99737.72;5036852;28;20209;-41
2024/03/19 01:03:43;;;;;;;2.15;0.95;;;;;;;10.40;75.67;99736.88;5033205;28;20790;-42
2024/03/19 01:06:09;;;;;;;4.28;2.15;;;;;;;10.40;76.71;99726.53;5041651;28;20053;-41
2024/03/19 01:08:35;;;;;;;1.80;0.85;;;;;;;10.41;75.57;99715.31;5019759;28;20674;-42
2024/03/19 01:11:01;;;;;;;5.55;2.05;;;;;;;10.44;75.38;99712.72;5019468;28;20053;-43
2024/03/19 01:13:27;;;;;;;2.33;2.22;;;;;;;10.44;76.18;99715.31;5009471;28;20061;-42
2024/03/19 01:15:53;;;;;;;1.67;1.58;;;;;;;10.45;75.37;99716.19;5019386;28;20302;-43
2024/03/19 01:18:18;;;;;;;3.47;1.80;;;;;;;10.47;75.95;99715.28;5033242;28;20069;-43
2024/03/19 01:20:44;;;;;;;2.45;2.25;;;;;;;10.51;75.65;99719.56;5024807;28;20053;-43
2024/03/19 01:23:10;;;;;;;2.65;2.15;;;;;;;10.53;75.21;99715.25;5011105;28;20041;-44
2024/03/19 01:25:36;;;;;;;1.33;0.75;;;;;;;10.56;75.78;99713.50;4997989;28;20422;-43
2024/03/19 01:28:01;;;;;;;3.72;2.10;;;;;;;10.52;75.58;99705.78;5015276;28;20057;-41
2024/03/19 01:30:27;;;;;;;6.40;1.52;;;;;;;10.53;74.72;99712.66;5029086;28;20050;-43
2024/03/19 01:32:53;;;;;;;4.47;2.22;;;;;;;10.54;75.55;99704.00;5028133;28;20052;-44
2024/03/19 01:35:19;;;;;;;2.97;0.93;;;;;;;10.39;75.48;99698.94;5030321;28;20386;-40
2024/03/19 01:37:44;;;;;;;1.40;1.05;;;;;;;10.47;75.15;99702.34;5033151;28;20465;-47
2024/03/19 01:40:10;;;;;;;1.77;1.63;;;;;;;10.52;74.77;99713.53;5031038;28;20080;-44
2024/03/19 01:42:36;;;;;;;1.77;1.60;;;;;;;10.50;74.86;99707.50;5033592;28;20038;-43
2024/03/19 01:45:11;;;;;;;3.90;2.10;;;;;;;10.48;75.15;99704.09;5022371;28;20092;-44
2024/03/19 01:47:38;;;;;;;5.60;2.08;;;;;;;10.57;74.84;99712.66;5016477;28;20042;-42
2024/03/19 01:50:08;;;;;;;2.80;1.92;;;;;;;10.61;74.80;99715.19;5007765;28;20060;-43
2024/03/19 01:52:40;;;;;;;3.28;2.08;;;;;;;10.58;74.01;99714.34;5034868;28;20052;-43
2024/03/19 01:55:07;;;;;;;2.00;1.83;;;;;;;10.53;74.77;99717.84;5023097;28;20054;-42
2024/03/19 01:57:34;;;;;;;5.10;2.33;;;;;;;10.56;75.07;99710.91;5019397;28;20057;-43
2024/03/19 02:00:00;;;;;;;2.83;2.33;;;;;;;10.44;74.97;99707.53;5017079;28;20049;-45
2024/03/19 02:02:31;;;;;;;2.15;1.80;;;;;;;10.47;75.07;99697.16;5031900;28;20094;-42
2024/03/19 02:04:59;;;;;;;4.47;1.75;;;;;;;10.51;75.25;99698.00;5032024;28;20037;-42
2024/03/19 02:07:25;;;;;;;3.85;2.05;;;;;;;10.47;74.61;99691.97;5030846;28;20053;-42
2024/03/19 02:09:53;;;;;;;3.22;1.98;;;;;;;10.52;74.97;99695.41;5018476;28;20057;-43
2024/03/19 02:12:20;;;;;;;1.70;1.60;;;;;;;10.50;74.51;99697.16;5035920;28;20037;-44
2024/03/19 02:14:46;;;;;;;2.78;1.95;;;;;;;10.46;74.59;99695.44;5031760;28;20051;-43
2024/03/19 02:17:12;;;;;;;3.72;1.60;;;;;;;10.43;74.94;99692.84;5017131;28;20053;-42
2024/03/19 02:19:38;;;;;;;5.20;2.20;;;;;;;10.45;75.71;99704.09;5034125;28;20103;-43
2024/03/19 02:22:05;;;;;;;3.80;1.58;;;;;;;10.45;75.75;99695.47;5025799;28;20053;-40
2024/03/19 02:24:31;;;;;;;2.80;1.77;;;;;;;10.47;75.09;99691.16;5028957;28;20510;-45
2024/03/19 02:26:57;;;;;;;4.97;1.85;;;;;;;10.47;75.48;99691.97;5035163;28;20050;-43
2024/03/19 02:29:23;;;;;;;2.22;1.98;;;;;;;10.46;75.41;99679.91;5033610;28;20053;-41
2024/03/19 02:31:48;;;;;;;1.80;0.70;;;;;;;10.54;75.60;99692.81;5027185;28;20418;-41
2024/03/19 02:34:14;;;;;;;6.35;1.90;;;;;;;10.53;75.25;99680.72;5035532;28;20060;-40
2024/03/19 02:36:40;;;;;;;1.42;1.33;;;;;;;10.53;75.36;99685.91;5021009;28;20053;-42
2024/03/19 02:39:07;;;;;;;4.07;1.90;;;;;;;10.49;75.66;99684.22;5032363;28;20045;-42
2024/03/19 02:41:33;;;;;;;5.82;2.10;;;;;;;10.41;76.56;99677.31;5027152;28;20093;-43
2024/03/19 02:43:58;;;;;;;5.72;2.13;;;;;;;10.47;75.69;99676.44;5035128;28;20045;-42
2024/03/19 02:46:24;;;;;;;4.68;2.53;;;;;;;10.45;76.09;99678.22;5023703;28;20064;-45
2024/03/19 02:48:50;;;;;;;4.20;1.13;;;;;;;10.42;76.02;99678.19;5025581;28;20449;-43
2024/03/19 02:51:15;;;;;;;6.10;2.65;;;;;;;10.45;76.60;99678.22;5031770;28;20132;-43
2024/03/19 02:53:41;;;;;;;4.60;2.50;;;;;;;10.45;75.75;99683.38;5029257;28;20049;-42
2024/03/19 02:56:07;;;;;;;3.58;2.35;;;;;;;10.48;76.54;99679.91;5029946;28;20049;-41
2024/03/19 02:58:33;;;;;;;4.70;2.58;;;;;;;10.44;76.31;99689.41;5023277;28;20089;-42
2024/03/19 03:00:59;;;;;;;5.25;2.00;;;;;;;10.43;76.54;99679.91;5022654;28;20138;-45
2024/03/19 03:03:25;;;;;;;3.92;3.22;;;;;;;10.52;76.03;99682.47;5031672;28;20680;-43
2024/03/19 03:05:50;;;;;;;3.95;2.20;;;;;;;10.50;75.68;99671.25;5025197;28;20075;-43
2024/03/19 03:08:16;;;;;;;4.85;2.58;;;;;;;10.52;76.01;99672.13;5025024;28;20041;-42
2024/03/19 03:10:42;;;;;;;4.63;2.42;;;;;;;10.53;75.60;99668.63;5008975;28;20080;-42
2024/03/19 03:13:08;;;;;;;8.73;2.25;;;;;;;10.51;76.49;99652.25;5029450;28;20061;-43
2024/03/19 03:15:34;;;;;;;4.70;2.28;;;;;;;10.40;76.54;99664.38;5028762;28;20509;-43
2024/03/19 03:18:00;;;;;;;3.47;2.00;;;;;;;10.41;76.82;99660.94;5017905;28;20119;-42
2024/03/19 03:20:26;;;;;;;7.80;2.25;;;;;;;10.38;75.97;99655.78;5021605;28;20045;-41
2024/03/19 03:22:52;;;;;;;2.30;2.03;;;;;;;10.28;76.95;99661.06;5031256;28;20061;-44
2024/03/19 03:25:18;;;;;;;4.07;1.90;;;;;;;10.35;76.63;99659.28;5022067;28;20511;-42
2024/03/19 03:27:44;;;;;;;5.35;2.22;;;;;;;10.36;76.77;99657.53;5025522;28;20057;-42
2024/03/19 03:30:13;;;;;;;6.78;2.50;;;;;;;10.40;76.77;99659.22;5016560;28;20056;-42
2024/03/19 03:32:42;;;;;;;2.13;1.75;;;;;;;10.40;76.85;99660.09;5030899;28;20060;-43
2024/03/19 03:35:08;;;;;;;3.80;2.15;;;;;;;10.42;76.45;99662.66;5032300;28;20048;-45
2024/03/19 03:37:34;;;;;;;6.78;1.73;;;;;;;10.40;77.19;99659.22;5019403;28;20064;-47
2024/03/19 03:40:09;;;;;;;4.90;2.25;;;;;;;10.34;76.62;99661.88;5035620;28;20057;-44
2024/03/19 03:42:34;;;;;;;2.55;1.83;;;;;;;10.34;76.68;99652.34;5013994;28;20130;-44
2024/03/19 03:45:00;;;;;;;2.20;1.90;;;;;;;10.36;77.51;99649.75;5008815;28;20486;-44
2024/03/19 03:47:26;;;;;;;1.75;1.65;;;;;;;10.36;76.81;99647.16;5019455;28;20038;-44
2024/03/19 03:49:51;;;;;;;6.65;2.17;;;;;;;10.31;76.98;99639.47;5025689;28;20053;-43
2024/03/19 03:52:17;;;;;;;3.95;1.90;;;;;;;10.32;77.50;99648.06;5027006;28;20057;-42
2024/03/19 03:54:43;;;;;;;2.90;1.65;;;;;;;10.34;77.21;99649.75;5030279;28;20053;-42
2024/03/19 03:57:09;;;;;;;3.28;3.00;;;;;;;10.33;77.48;99652.41;5022687;28;20123;-42
2024/03/19 03:59:34;;;;;;;6.55;1.77;;;;;;;10.37;77.10;99656.66;5023348;28;20136;-44
2024/03/19 04:02:00;;;;;;;6.15;1.73;;;;;;;10.39;77.52;99653.19;5027856;28;20071;-42
2024/03/19 04:04:26;;;;;;;3.95;1.90;;;;;;;10.42;76.90;99657.47;5032408;28;20106;-42
2024/03/19 04:06:52;;;;;;;8.98;2.35;;;;;;;10.43;77.22;99661.78;5027043;28;20057;-45
2024/03/19 04:09:17;;;;;;;3.63;1.38;;;;;;;10.40;77.54;99659.22;5026068;28;20379;-46
2024/03/19 04:11:43;;;;;;;8.00;2.25;;;;;;;10.44;77.15;99660.94;5026617;28;20088;-45
2024/03/19 04:14:09;;;;;;;4.28;2.15;;;;;;;10.50;77.70;99660.91;5022068;28;20068;-44
2024/03/19 04:16:34;;;;;;;6.07;0.90;;;;;;;10.49;77.57;99659.19;5039547;28;20505;-43
2024/03/19 04:19:00;;;;;;;1.67;1.55;;;;;;;10.49;76.70;99648.81;5033970;28;20502;-44
2024/03/19 04:21:26;;;;;;;4.28;1.63;;;;;;;10.55;77.22;99642.72;5039710;28;20049;-41
2024/03/19 04:23:52;;;;;;;6.97;2.40;;;;;;;10.51;76.22;99652.25;5028808;28;20038;-42
2024/03/19 04:26:18;;;;;;;6.20;1.88;;;;;;;10.47;76.70;99662.66;5035167;28;20080;-42
2024/03/19 04:28:44;;;;;;;3.90;2.60;;;;;;;10.44;76.67;99665.25;5024978;28;20555;-44
2024/03/19 04:31:10;;;;;;;6.72;3.13;;;;;;;10.45;76.59;99662.69;5019766;28;20115;-44
2024/03/19 04:33:36;;;;;;;3.35;2.65;;;;;;;10.41;77.57;99672.16;5028903;28;20790;-42
2024/03/19 04:36:02;;;;;;;4.05;2.55;;;;;;;10.41;76.48;99671.31;5033231;28;20049;-44
2024/03/19 04:38:28;;;;;;;10.63;2.63;;;;;;;10.40;77.07;99674.75;5027548;28;20045;-43
2024/03/19 04:40:54;;;;;;;8.73;2.38;;;;;;;10.44;77.52;99665.25;5022013;28;20080;-43
2024/03/19 04:43:20;;;;;;;4.80;2.08;;;;;;;10.49;76.34;99674.72;5019335;28;20119;-42
2024/03/19 04:45:46;;;;;;;4.75;2.30;;;;;;;10.43;77.21;99668.72;5024810;28;20054;-45
2024/03/19 04:48:12;;;;;;;8.50;3.17;;;;;;;10.50;77.32;99671.25;5020594;28;20054;-43
2024/03/19 04:50:38;;;;;;;6.25;2.58;;;;;;;10.47;77.38;99670.44;5026471;28;20134;-45
2024/03/19 04:53:04;;;;;;;6.03;2.42;;;;;;;10.50;76.55;99671.25;5026226;28;20781;-42
2024/03/19 04:55:29;;;;;;;6.18;1.27;;;;;;;10.48;76.48;99672.13;5026480;28;20418;-41
2024/03/19 04:57:55;;;;;;;4.70;2.13;;;;;;;10.47;76.70;99673.03;5025413;28;20064;-42
2024/03/19 05:00:21;;;;;;;3.47;1.98;;;;;;;10.51;76.65;99672.97;5023244;28;20047;-44
2024/03/19 05:02:47;;;;;;;9.20;1.05;;;;;;;10.53;76.49;99668.63;5023403;28;20408;-42
2024/03/19 05:05:12;;;;;;;3.30;1.95;;;;;;;10.51;77.00;99683.31;5037705;28;20051;-41
2024/03/19 05:07:41;;;;;;;4.72;1.98;;;;;;;10.45;78.40;99679.94;5033763;28;20053;-43
2024/03/19 05:10:07;;;;;;;6.80;2.65;;;;;;;10.48;77.52;99672.13;5030055;28;20053;-43
2024/03/19 05:12:33;;;;;;;6.63;2.30;;;;;;;10.52;77.77;99679.00;5024310;28;20052;-44
2024/03/19 05:14:58;;;;;;;3.35;2.15;;;;;;;10.54;77.56;99678.13;5030647;28;20080;-46
2024/03/19 05:17:24;;;;;;;2.65;1.05;;;;;;;10.43;77.89;99679.91;5024629;28;20415;-41
2024/03/19 05:19:50;;;;;;;3.60;2.45;;;;;;;10.47;78.48;99679.03;5031321;28;20502;-41
2024/03/19 05:22:15;;;;;;;5.07;0.80;;;;;;;10.44;77.61;99680.78;5028044;28;20611;-42
2024/03/19 05:24:41;;;;;;;2.72;1.65;;;;;;;10.32;78.30;99680.00;5034579;28;20063;-44
2024/03/19 05:27:08;;;;;;;5.80;1.40;;;;;;;10.38;77.98;99677.38;5023771;28;20413;-40
2024/03/19 05:29:34;;;;;;;3.17;1.38;;;;;;;10.43;78.66;99685.09;5018400;28;20399;-44
2024/03/19 05:32:00;;;;;;;4.18;2.03;;;;;;;10.46;78.29;99684.22;5023800;28;20050;-43
2024/03/19 05:34:26;;;;;;;5.03;2.90;;;;;;;10.45;78.06;99688.56;5026525;28;20073;-45
2024/03/19 05:36:51;;;;;;;2.42;2.10;;;;;;;10.39;78.96;99691.16;5019094;28;20057;-40
2024/03/19 05:39:17;;;;;;;3.22;2.63;;;;;;;10.42;79.00;99683.38;5023032;28;20061;-43
2024/03/19 05:41:43;;;;;;;6.55;2.22;;;;;;;10.46;79.40;99687.69;5018145;28;20076;-44
2024/03/19 05:44:09;;;;;;;6.30;3.05;;;;;;;10.49;79.20;99684.22;5025247;28;20067;-41
2024/03/19 05:46:35;;;;;;;7.07;2.50;;;;;;;10.53;78.61;99689.34;5027688;28;20046;-42
2024/03/19 05:49:01;;;;;;;7.10;2.25;;;;;;;10.53;78.59;99691.06;5035166;28;20110;-42
2024/03/19 05:51:26;;;;;;;8.50;2.38;;;;;;;10.57;78.39;99682.41;5017275;28;20054;-41
2024/03/19 05:53:52;;;;;;;3.88;2.30;;;;;;;10.54;78.19;99692.81;5029450;28;20052;-43
2024/03/19 05:56:18;;;;;;;2.42;2.15;;;;;;;10.50;79.32;99697.16;5025555;28;20051;-41
2024/03/19 05:58:43;;;;;;;8.48;2.42;;;;;;;10.60;78.82;99691.91;5035073;28;20068;-43
2024/03/19 06:01:09;;;;;;;4.72;2.60;;;;;;;10.61;79.02;99701.38;5024965;28;20140;-43
2024/03/19 06:03:35;;;;;;;3.45;2.35;;;;;;;10.61;78.98;99709.16;5031670;28;20083;-42
2024/03/19 06:06:08;;;;;;;4.63;2.25;;;;;;;10.59;78.18;99696.22;5032047;28;20076;-43
2024/03/19 06:08:35;;;;;;;3.50;2.03;;;;;;;10.60;79.27;99702.25;5028762;28;20080;-42
2024/03/19 06:11:01;;;;;;;3.53;2.33;;;;;;;10.57;79.26;99703.13;5004985;28;20072;-44
2024/03/19 06:13:27;;;;;;;5.28;2.03;;;;;;;10.62;78.51;99700.50;5032150;28;20549;-41
2024/03/19 06:15:52;;;;;;;4.22;2.33;;;;;;;10.52;79.87;99710.94;5028619;28;20133;-42
2024/03/19 06:18:18;;;;;;;5.53;1.77;;;;;;;10.59;79.72;99700.53;5036608;28;20502;-42
2024/03/19 06:20:45;;;;;;;4.75;2.30;;;;;;;10.57;80.19;99703.13;5040216;28;20041;-43
2024/03/19 06:23:11;;;;;;;4.13;2.47;;;;;;;10.68;78.95;99705.66;5029027;28;20053;-41
2024/03/19 06:25:38;;;;;;;7.30;1.75;;;;;;;10.73;79.26;99711.63;5021187;28;20629;-42
2024/03/19 06:28:05;;;;;;;4.13;1.77;;;;;;;10.69;79.28;99702.16;5008610;28;20072;-41
2024/03/19 06:30:31;;;;;;;2.85;1.95;;;;;;;10.68;78.92;99708.22;5009434;28;20056;-42
2024/03/19 06:32:58;;;;;;;2.92;2.40;;;;;;;10.66;79.73;99703.06;5024628;28;20115;-41
2024/03/19 06:35:25;;;;;;;2.70;2.08;;;;;;;10.74;78.88;99715.09;5030129;28;20049;-43
2024/03/19 06:37:51;;;;;;;3.38;2.45;;;;;;;10.76;79.14;99702.97;5043241;28;20046;-43
2024/03/19 06:40:17;;;;;;;9.75;2.80;;;;;;;10.77;79.32;99708.13;5034430;28;20056;-41
2024/03/19 06:42:43;;;;;;;5.57;2.35;;;;;;;10.85;78.67;99704.63;5032234;28;20063;-44
2024/03/19 06:45:09;;;;;;;4.43;2.22;;;;;;;10.90;78.96;99706.31;5025390;28;20041;-46
2024/03/19 06:47:36;;;;;;;3.60;2.03;;;;;;;10.88;78.28;99696.84;5023939;28;20041;-42
2024/03/19 06:50:06;;;;;;;4.38;2.55;;;;;;;10.89;79.55;99698.53;5021879;28;20455;-44
2024/03/19 06:52:33;;;;;;;1.98;1.77;;;;;;;10.87;79.97;99701.13;5020739;28;20093;-42
2024/03/19 06:54:59;;;;;;;4.07;2.28;;;;;;;10.91;79.37;99720.97;5032996;28;20063;-41
2024/03/19 06:57:25;;;;;;;6.13;2.28;;;;;;;10.98;78.59;99716.56;5027352;28;20056;-40
2024/03/19 06:59:51;;;;;;;5.93;2.15;;;;;;;10.98;79.84;99719.16;5023485;28;20045;-42
2024/03/19 07:02:18;;;;;;;5.85;3.38;;;;;;;11.02;78.83;99730.38;5031846;28;20044;-44
2024/03/19 07:04:44;;;;;;;2.25;2.05;;;;;;;11.00;79.01;99732.97;5026946;28;20088;-44
2024/03/19 07:07:13;;;;;;;3.17;2.78;;;;;;;11.03;79.68;99727.78;5033066;28;20053;-43
2024/03/19 07:09:40;;;;;;;3.65;2.47;;;;;;;11.10;79.38;99732.88;5037411;28;20095;-44
2024/03/19 07:12:07;;;;;;;3.30;2.10;;;;;;;11.07;78.96;99741.53;5016063;28;20061;-41
2024/03/19 07:14:36;;;;;;;5.60;3.35;;;;;;;11.08;78.57;99740.66;5021875;28;20049;-46
2024/03/19 07:17:02;;;;;;;4.13;2.47;;;;;;;11.10;79.40;99743.25;5030714;28;20056;-43
2024/03/19 07:19:28;;;;;;;2.20;1.95;;;;;;;11.11;78.94;99751.00;5024228;28;20061;-44
2024/03/19 07:21:54;;;;;;;4.70;1.98;;;;;;;11.23;79.41;99743.97;5016585;28;20057;-43
2024/03/19 07:24:19;;;;;;;3.03;2.83;;;;;;;11.19;79.38;99738.00;5016980;28;20053;-43
2024/03/19 07:26:45;;;;;;;2.10;1.92;;;;;;;11.30;79.52;99756.88;5025240;28;20061;-43
2024/03/19 07:29:11;;;;;;;9.02;2.35;;;;;;;11.34;79.25;99754.25;5026363;28;20076;-42
2024/03/19 07:31:40;;;;;;;4.85;1.83;;;;;;;11.42;78.89;99744.66;5024170;28;20049;-43
2024/03/19 07:34:06;;;;;;;3.42;2.40;;;;;;;11.54;78.48;99754.91;5023119;28;20060;-44
2024/03/19 07:36:32;;;;;;;5.57;2.15;;;;;;;11.53;78.34;99748.00;5015399;28;20521;-42
2024/03/19 07:38:58;;;;;;;5.93;3.05;;;;;;;11.64;78.47;99755.66;5027461;28;20053;-42
2024/03/19 07:41:23;;;;;;;3.38;1.98;;;;;;;11.60;78.91;99758.28;5021342;28;20049;-43
2024/03/19 07:43:49;;;;;;;3.22;2.30;;;;;;;11.64;78.17;99760.84;5028226;28;20061;-42
2024/03/19 07:46:16;;;;;;;2.97;1.75;;;;;;;11.70;78.36;99765.09;5019483;28;20053;-41
2024/03/19 07:48:43;;;;;;;6.75;3.65;;;;;;;11.76;77.49;99775.38;5026390;28;20053;-41
2024/03/19 07:51:09;;;;;;;4.00;2.25;;;;;;;11.75;78.09;99773.66;5024106;28;20730;-44
2024/03/19 07:53:35;;;;;;;8.23;3.22;;;;;;;11.81;78.05;99789.16;5024411;28;20087;-41
2024/03/19 07:56:01;;;;;;;11.20;5.13;;;;;;;11.87;77.86;99787.38;5025974;28;20124;-42
2024/03/19 07:58:27;;;;;;;2.05;1.75;;;;;;;11.82;77.16;99779.63;5021581;28;20053;-45
2024/03/19 08:00:53;;;;;;;3.53;2.22;;;;;;;11.80;77.34;99789.19;5020079;28;20084;-42
2024/03/19 08:03:19;;;;;;;6.80;1.58;;;;;;;11.72;78.36;99797.03;5018650;28;20569;-43
2024/03/19 08:05:46;;;;;;;5.35;1.63;;;;;;;11.72;77.81;99793.63;5019698;28;20056;-44
2024/03/19 08:08:12;;;;;;;3.72;2.47;;;;;;;11.76;78.44;99796.13;5017626;28;20070;-45
2024/03/19 08:10:38;;;;;;;2.47;1.95;;;;;;;11.80;77.51;99802.16;5021640;28;20060;-43
2024/03/19 08:13:03;;;;;;;4.32;2.03;;;;;;;11.81;77.40;99788.31;5020720;28;20072;-45
2024/03/19 08:15:32;;;;;;;8.10;3.67;;;;;;;11.79;78.07;99801.28;5011120;28;20509;-45
2024/03/19 08:17:58;;;;;;;2.35;2.05;;;;;;;11.82;79.01;99796.06;4990524;28;20049;-44
2024/03/19 08:20:24;;;;;;;2.53;1.77;;;;;;;11.91;78.54;99799.44;5017023;28;20049;-45
2024/03/19 08:22:49;;;;;;;4.57;2.00;;;;;;;11.98;77.38;99798.47;5018360;28;20146;-43
2024/03/19 08:25:15;;;;;;;2.13;1.95;;;;;;;12.05;78.54;99804.44;5022435;28;20081;-45
2024/03/19 08:27:41;;;;;;;4.35;2.33;;;;;;;12.21;78.17;99810.34;5020184;28;20486;-44
2024/03/19 08:30:08;;;;;;;3.10;2.85;;;;;;;12.24;77.67;99807.69;5017724;28;20042;-46
2024/03/19 08:32:37;;;;;;;5.32;2.40;;;;;;;12.36;77.63;99816.22;5018286;28;20095;-45
2024/03/19 08:35:08;;;;;;;8.25;5.35;;;;;;;12.39;77.58;99816.16;5000421;28;20064;-42
2024/03/19 08:37:36;;;;;;;6.82;4.40;;;;;;;12.60;76.59;99823.63;5020299;28;20064;-45
2024/03/19 08:40:05;;;;;;;9.00;6.00;;;;;;;12.87;76.77;99827.59;5024452;28;20143;-45
2024/03/19 08:42:33;;;;;;;4.82;2.42;;;;;;;12.92;76.29;99830.97;5022877;28;20041;-41
2024/03/19 08:44:59;;;;;;;12.88;5.97;;;;;;;12.90;75.89;99840.53;5004121;28;20045;-43
2024/03/19 08:47:24;;;;;;;7.63;3.75;;;;;;;12.80;75.91;99827.66;5029019;28;20049;-43
2024/03/19 08:49:50;;;;;;;9.57;4.18;;;;;;;12.76;75.32;99844.19;5021352;28;20049;-45
2024/03/19 08:52:16;;;;;;;13.73;7.72;;;;;;;12.72;76.92;99845.13;5022322;28;20057;-42
2024/03/19 08:54:42;;;;;;;13.70;9.25;;;;;;;12.72;76.60;99842.53;5025215;28;20486;-44
2024/03/19 08:57:10;;;;;;;31.17;12.77;;;;;;;12.68;76.12;99843.44;5026016;28;20045;-42
2024/03/19 08:59:36;;;;;;;67.78;24.10;;;;;;;12.66;76.49;99840.03;5020458;28;20056;-44
2024/03/19 09:02:04;;;;;;;39.17;17.05;;;;;;;12.60;77.05;99852.22;5022930;28;20049;-43
2024/03/19 09:04:33;;;;;;;16.00;9.02;;;;;;;12.49;77.17;99837.69;5024908;28;20057;-43
2024/03/19 09:06:58;;;;;;;23.95;11.80;;;;;;;12.57;76.22;99841.88;5016481;28;20053;-41
2024/03/19 09:09:24;;;;;;;21.48;8.15;;;;;;;12.63;77.20;99845.28;5025522;28;20091;-45
2024/03/19 09:11:51;;;;;;;42.10;18.45;;;;;;;12.63;76.58;99845.28;5019766;28;20109;-43
2024/03/19 09:14:18;;;;;;;53.08;21.27;;;;;;;12.67;76.55;99845.19;5014543;28;20477;-43
2024/03/19 09:16:43;;;;;;;38.05;15.48;;;;;;;12.69;76.56;99852.97;5019624;28;20065;-42
2024/03/19 09:19:09;;;;;;;40.88;18.83;;;;;;;12.65;77.17;99859.09;5026794;28;20057;-42
2024/03/19 09:21:35;;;;;;;9.02;3.42;;;;;;;12.62;76.70;99856.53;5023645;28;20049;-45
2024/03/19 09:24:02;;;;;;;7.15;3.95;;;;;;;12.59;77.02;99860.91;5024323;28;20048;-44
2024/03/19 09:26:28;;;;;;;16.92;9.88;;;;;;;12.65;76.78;99870.34;5007309;28;20049;-43
2024/03/19 09:28:56;;;;;;;43.42;21.80;;;;;;;12.66;77.76;99871.22;5023399;28;20053;-42
2024/03/19 09:31:22;;;;;;;24.45;12.10;;;;;;;12.71;76.61;99877.19;5018653;28;20116;-42
2024/03/19 09:33:48;;;;;;;35.70;15.93;;;;;;;12.75;77.40;99870.19;5023713;28;20048;-44
2024/03/19 09:36:13;;;;;;;28.70;13.40;;;;;;;12.77;77.88;99869.28;5022787;28;20056;-45
2024/03/19 09:38:39;;;;;;;21.58;9.57;;;;;;;12.85;77.14;99877.84;5021999;28;20414;-43
2024/03/19 09:41:06;;;;;;;101.75;38.58;;;;;;;12.84;76.45;99881.31;5020916;28;20057;-40
2024/03/19 09:43:35;;;;;;;75.72;28.88;;;;;;;12.88;76.69;99876.94;5020548;28;20046;-43
2024/03/19 09:46:02;;;;;;;48.25;20.25;;;;;;;12.78;76.73;99876.22;5022726;28;20537;-43
2024/03/19 09:48:30;;;;;;;65.20;24.73;;;;;;;12.88;76.30;99891.69;4988667;28;20072;-43
2024/03/19 09:50:57;;;;;;;68.65;29.80;;;;;;;12.89;76.66;99898.59;5006313;28;20096;-44
2024/03/19 09:53:26;;;;;;;73.22;29.92;;;;;;;12.97;75.58;99892.41;5016734;28;20510;-43
2024/03/19 09:55:53;;;;;;;62.25;22.85;;;;;;;12.99;77.11;99900.19;5011290;28;21638;-46
2024/03/19 09:58:23;;;;;;;58.60;21.05;;;;;;;13.04;76.18;99903.56;5019524;28;20065;-44
2024/03/19 10:00:51;;;;;;;;;;;;;;;12.83;76.97;99913.41;4994070;28;20041;-43
2024/03/19 10:03:16;;;;;;;52.05;19.02;;;;;;;12.89;77.10;99916.78;5029943;28;20365;-44
2024/03/19 10:05:42;;;;;;;149.85;51.67;;;;;;;12.97;76.68;99915.78;5007407;28;20052;-44
2024/03/19 10:08:11;;;;;;;49.20;19.35;;;;;;;12.97;75.63;99918.41;5008866;28;20050;-46
2024/03/19 10:10:37;;;;;;;14.77;6.13;;;;;;;13.01;76.81;99924.44;5023668;28;20673;-44
2024/03/19 10:13:03;;;;;;;15.93;7.18;;;;;;;13.05;75.76;99928.69;5008217;28;20053;-44
2024/03/19 10:15:29;;;;;;;59.50;19.30;;;;;;;13.08;76.17;99936.41;5017844;28;20053;-46
2024/03/19 10:17:58;;;;;;;14.60;5.70;;;;;;;13.10;76.73;99926.88;5007373;28;20099;-41
2024/03/19 10:20:26;;;;;;;73.75;21.73;;;;;;;13.10;76.78;99926.88;5024969;28;20066;-44
2024/03/19 10:22:51;;;;;;;43.40;16.60;;;;;;;13.15;77.45;99931.13;5024869;28;20053;-48
2024/03/19 10:25:17;;;;;;;39.95;15.07;;;;;;;13.20;78.36;99922.38;5005772;28;20136;-43
2024/03/19 10:30:21;;;;;;;23.10;7.93;;;;;;;13.69;76.60;99917.28;5008870;28;20415;-42
2024/03/19 10:32:49;;;;;;;7.22;3.15;;;;;;;13.79;76.99;99933.59;5007647;28;20412;-46
2024/03/19 10:37:53;;;;;;;13.32;5.10;;;;;;;14.30;76.74;99929.16;5032670;28;20376;-43
2024/03/19 10:40:21;;;;;;;8.80;2.15;;;;;;;14.48;76.44;99927.94;4985064;28;20128;-43
2024/03/19 10:42:48;;;;;;;8.55;2.95;;;;;;;14.80;75.85;99922.97;4982822;28;20055;-45
2024/03/19 10:45:22;;;;;;;9.48;4.05;;;;;;;15.03;75.33;99939.84;4981508;28;20054;-44
2024/03/19 10:47:49;;;;;;;16.13;5.93;;;;;;;15.14;74.15;99943.03;4989586;28;20483;-44
2024/03/19 10:50:17;;;;;;;30.55;12.13;;;;;;;15.16;73.16;99946.47;4995355;28;20622;-45
2024/03/19 10:52:49;;;;;;;14.23;6.40;;;;;;;15.16;73.28;99946.47;4957947;28;20062;-43
2024/03/19 10:55:16;;;;;;;13.52;5.25;;;;;;;15.18;72.68;99943.81;4997640;28;20050;-43
2024/03/19 10:57:45;;;;;;;18.35;6.45;;;;;;;15.31;73.32;99941.78;4981223;28;20131;-44
2024/03/19 11:00:25;;;;;;;8.18;3.67;;;;;;;15.37;72.29;99949.44;4982415;28;20053;-43
2024/03/19 11:02:54;;;;;;;7.45;3.72;;;;;;;15.40;72.20;99944.16;5010896;28;20053;-43
2024/03/19 11:05:20;;;;;;;5.47;1.75;;;;;;;15.31;71.49;99947.00;4995742;28;20047;-43
2024/03/19 11:07:49;;;;;;;4.53;1.27;;;;;;;15.34;72.17;99946.06;4976521;28;20085;-43
2024/03/19 11:10:25;;;;;;;2.03;1.33;;;;;;;15.31;71.66;99944.38;5005257;28;20070;-44
2024/03/19 11:12:56;;;;;;;6.10;1.55;;;;;;;15.67;71.87;99946.97;4993015;28;20558;-44
2024/03/19 11:15:22;;;;;;;1.75;0.93;;;;;;;15.84;71.29;99947.44;4980764;28;20642;-44
2024/03/19 11:17:48;;;;;;;3.42;0.85;;;;;;;15.85;71.50;99947.41;4985232;28;20050;-42
2024/03/19 11:20:16;;;;;;;3.92;1.35;;;;;;;15.85;71.43;99960.47;5001015;28;20059;-43
2024/03/19 11:22:45;;;;;;;6.50;2.50;;;;;;;15.87;71.00;99957.81;4979625;28;20065;-43
2024/03/19 11:25:14;;;;;;;5.95;0.77;;;;;;;15.86;69.95;99967.38;4998556;28;20061;-47
2024/03/19 11:27:48;;;;;;;3.08;0.95;;;;;;;15.84;70.18;99969.16;4974641;28;20043;-42
2024/03/19 11:30:16;;;;;;;8.38;1.52;;;;;;;15.82;69.49;99965.75;5000229;28;20046;-45
2024/03/19 11:32:42;;;;;;;5.63;1.10;;;;;;;15.71;69.81;99967.78;4993093;28;20075;-44